sensor_id;sensor_type;location;lat;lon;timestamp;temperature;humidity
18974;DHT22;9621;48.690;9.466;2022-07-21T00:01:52;17.30;99.90
18974;DHT22;9621;48.690;9.466;2022-07-21T00:04:20;17.30;99.90
18974;DHT22;9621;48.690;9.466;2022-07-21T00:06:47;17.30;99.90
18974;DHT22;9621;48.690;9.466;2022-07-21T00:09:15;17.20;99.90
18974;DHT22;9621;48.690;9.466;2022-07-21T00:11:42;17.20;99.90
18974;DHT22;9621;48.690;9.466;2022-07-21T00:14:10;17.10;99.90
18974;DHT22;9621;48.690;9.466;2022-07-21T00:16:38;17.20;99.90
18974;DHT22;9621;48.690;9.466;2022-07-21T00:19:08;17.20;99.90
18974;DHT22;9621;48.690;9.466;2022-07-21T00:21:36;17.00;99.90
18974;DHT22;9621;48.690;9.466;2022-07-21T00:24:04;17.10;99.90
18974;DHT22;9621;48.690;9.466;2022-07-21T00:26:32;17.10;99.90
18974;DHT22;9621;48.690;9.466;2022-07-21T00:28:59;17.10;99.90
18974;DHT22;9621;48.690;9.466;2022-07-21T00:31:26;17.00;99.90
18974;DHT22;9621;48.690;9.466;2022-07-21T00:33:53;17.00;99.90
18974;DHT22;9621;48.690;9.466;2022-07-21T00:36:22;17.00;99.90
18974;DHT22;9621;48.690;9.466;2022-07-21T00:38:49;17.00;99.90
18974;DHT22;9621;48.690;9.466;2022-07-21T00:41:16;17.00;99.90
18974;DHT22;9621;48.690;9.466;2022-07-21T00:43:43;17.00;99.90
18974;DHT22;9621;48.690;9.466;2022-07-21T00:46:10;17.10;99.90
18974;DHT22;9621;48.690;9.466;2022-07-21T00:48:37;17.10;99.90
18974;DHT22;9621;48.690;9.466;2022-07-21T00:51:05;17.00;99.90
18974;DHT22;9621;48.690;9.466;2022-07-21T00:53:33;17.10;99.90
18974;DHT22;9621;48.690;9.466;2022-07-21T00:56:02;17.10;99.90
18974;DHT22;9621;48.690;9.466;2022-07-21T00:58:29;17.20;99.90
18974;DHT22;9621;48.690;9.466;2022-07-21T01:00:55;17.20;99.90
18974;DHT22;9621;48.690;9.466;2022-07-21T01:03:23;17.20;99.90
18974;DHT22;9621;48.690;9.466;2022-07-21T01:05:50;17.20;99.90
18974;DHT22;9621;48.690;9.466;2022-07-21T01:08:17;17.20;99.90
18974;DHT22;9621;48.690;9.466;2022-07-21T01:10:46;17.20;99.90
18974;DHT22;9621;48.690;9.466;2022-07-21T01:13:13;17.20;99.90
18974;DHT22;9621;48.690;9.466;2022-07-21T01:15:40;17.20;99.90
18974;DHT22;9621;48.690;9.466;2022-07-21T01:18:09;17.20;99.90
18974;DHT22;9621;48.690;9.466;2022-07-21T01:20:36;17.20;99.90
18974;DHT22;9621;48.690;9.466;2022-07-21T01:23:07;17.20;99.90
18974;DHT22;9621;48.690;9.466;2022-07-21T01:25:34;17.20;99.90
18974;DHT22;9621;48.690;9.466;2022-07-21T01:28:01;17.20;99.90
18974;DHT22;9621;48.690;9.466;2022-07-21T01:30:28;17.30;99.90
18974;DHT22;9621;48.690;9.466;2022-07-21T01:32:55;17.20;99.90
18974;DHT22;9621;48.690;9.466;2022-07-21T01:35:22;17.30;99.90
18974;DHT22;9621;48.690;9.466;2022-07-21T01:37:49;17.20;99.90
18974;DHT22;9621;48.690;9.466;2022-07-21T01:40:18;17.20;99.90
18974;DHT22;9621;48.690;9.466;2022-07-21T01:43:03;17.20;99.90
18974;DHT22;9621;48.690;9.466;2022-07-21T01:45:30;17.30;99.90
18974;DHT22;9621;48.690;9.466;2022-07-21T01:47:57;17.20;99.90
18974;DHT22;9621;48.690;9.466;2022-07-21T01:50:25;17.20;99.90
18974;DHT22;9621;48.690;9.466;2022-07-21T01:52:54;17.30;99.90
18974;DHT22;9621;48.690;9.466;2022-07-21T01:55:23;17.20;99.90
18974;DHT22;9621;48.690;9.466;2022-07-21T01:57:51;17.30;99.90
18974;DHT22;9621;48.690;9.466;2022-07-21T02:00:18;17.30;99.90
18974;DHT22;9621;48.690;9.466;2022-07-21T02:02:45;17.30;99.90
18974;DHT22;9621;48.690;9.466;2022-07-21T02:05:12;17.30;99.90
18974;DHT22;9621;48.690;9.466;2022-07-21T02:07:40;17.40;99.90
18974;DHT22;9621;48.690;9.466;2022-07-21T02:10:08;17.40;99.90
18974;DHT22;9621;48.690;9.466;2022-07-21T02:12:36;17.50;99.90
18974;DHT22;9621;48.690;9.466;2022-07-21T02:15:04;17.50;99.90
18974;DHT22;9621;48.690;9.466;2022-07-21T02:17:31;17.50;99.90
18974;DHT22;9621;48.690;9.466;2022-07-21T02:19:58;17.50;99.90
18974;DHT22;9621;48.690;9.466;2022-07-21T02:22:25;17.60;99.90
18974;DHT22;9621;48.690;9.466;2022-07-21T02:24:52;17.60;99.90
18974;DHT22;9621;48.690;9.466;2022-07-21T02:27:19;17.60;99.90
18974;DHT22;9621;48.690;9.466;2022-07-21T02:29:47;17.60;99.90
18974;DHT22;9621;48.690;9.466;2022-07-21T02:32:14;17.60;99.90
18974;DHT22;9621;48.690;9.466;2022-07-21T02:34:41;17.60;99.90
18974;DHT22;9621;48.690;9.466;2022-07-21T02:37:08;17.60;99.90
18974;DHT22;9621;48.690;9.466;2022-07-21T02:39:35;17.60;99.90
18974;DHT22;9621;48.690;9.466;2022-07-21T02:42:02;17.60;99.90
18974;DHT22;9621;48.690;9.466;2022-07-21T02:44:29;17.60;99.90
18974;DHT22;9621;48.690;9.466;2022-07-21T02:46:58;17.60;99.90
18974;DHT22;9621;48.690;9.466;2022-07-21T02:49:25;17.60;99.90
18974;DHT22;9621;48.690;9.466;2022-07-21T02:51:52;17.60;99.90
18974;DHT22;9621;48.690;9.466;2022-07-21T02:54:19;17.60;99.90
18974;DHT22;9621;48.690;9.466;2022-07-21T02:56:46;17.60;99.90
18974;DHT22;9621;48.690;9.466;2022-07-21T02:59:13;17.60;99.90
18974;DHT22;9621;48.690;9.466;2022-07-21T03:01:40;17.60;99.90
18974;DHT22;9621;48.690;9.466;2022-07-21T03:04:09;17.60;99.90
18974;DHT22;9621;48.690;9.466;2022-07-21T03:06:37;17.60;99.90
18974;DHT22;9621;48.690;9.466;2022-07-21T03:09:04;17.70;99.90
18974;DHT22;9621;48.690;9.466;2022-07-21T03:11:31;17.60;99.90
18974;DHT22;9621;48.690;9.466;2022-07-21T03:13:58;17.60;99.90
18974;DHT22;9621;48.690;9.466;2022-07-21T03:16:26;17.70;99.90
18974;DHT22;9621;48.690;9.466;2022-07-21T03:18:53;17.60;99.90
18974;DHT22;9621;48.690;9.466;2022-07-21T03:21:21;17.60;99.90
18974;DHT22;9621;48.690;9.466;2022-07-21T03:23:48;17.60;99.90
18974;DHT22;9621;48.690;9.466;2022-07-21T03:26:16;17.60;99.90
18974;DHT22;9621;48.690;9.466;2022-07-21T03:28:44;17.60;99.90
18974;DHT22;9621;48.690;9.466;2022-07-21T03:31:11;17.60;99.90
18974;DHT22;9621;48.690;9.466;2022-07-21T03:33:38;17.60;99.90
18974;DHT22;9621;48.690;9.466;2022-07-21T03:36:05;17.50;99.90
18974;DHT22;9621;48.690;9.466;2022-07-21T03:38:35;17.50;99.90
18974;DHT22;9621;48.690;9.466;2022-07-21T03:41:02;17.50;99.90
18974;DHT22;9621;48.690;9.466;2022-07-21T03:43:29;17.50;99.90
18974;DHT22;9621;48.690;9.466;2022-07-21T03:45:56;17.50;99.90
18974;DHT22;9621;48.690;9.466;2022-07-21T03:48:23;17.40;99.90
18974;DHT22;9621;48.690;9.466;2022-07-21T03:50:50;17.40;99.90
18974;DHT22;9621;48.690;9.466;2022-07-21T03:53:17;17.40;99.90
18974;DHT22;9621;48.690;9.466;2022-07-21T03:55:46;17.40;99.90
18974;DHT22;9621;48.690;9.466;2022-07-21T03:58:13;17.40;99.90
18974;DHT22;9621;48.690;9.466;2022-07-21T04:00:42;17.40;99.90
18974;DHT22;9621;48.690;9.466;2022-07-21T04:03:09;17.40;99.90
18974;DHT22;9621;48.690;9.466;2022-07-21T04:05:38;17.40;99.90
18974;DHT22;9621;48.690;9.466;2022-07-21T04:08:06;17.40;99.90
18974;DHT22;9621;48.690;9.466;2022-07-21T04:10:35;17.50;99.90
18974;DHT22;9621;48.690;9.466;2022-07-21T04:13:05;17.50;99.90
18974;DHT22;9621;48.690;9.466;2022-07-21T04:15:33;17.50;99.90
18974;DHT22;9621;48.690;9.466;2022-07-21T04:18:00;17.50;99.90
18974;DHT22;9621;48.690;9.466;2022-07-21T04:20:27;17.50;99.90
18974;DHT22;9621;48.690;9.466;2022-07-21T04:22:54;17.50;99.90
18974;DHT22;9621;48.690;9.466;2022-07-21T04:25:22;17.50;99.90
18974;DHT22;9621;48.690;9.466;2022-07-21T04:27:50;17.50;99.90
18974;DHT22;9621;48.690;9.466;2022-07-21T04:30:20;17.50;99.90
18974;DHT22;9621;48.690;9.466;2022-07-21T04:32:48;17.60;99.90
18974;DHT22;9621;48.690;9.466;2022-07-21T04:35:15;17.70;99.90
18974;DHT22;9621;48.690;9.466;2022-07-21T04:37:42;17.60;99.90
18974;DHT22;9621;48.690;9.466;2022-07-21T04:40:11;17.70;99.90
18974;DHT22;9621;48.690;9.466;2022-07-21T04:42:39;17.80;99.90
18974;DHT22;9621;48.690;9.466;2022-07-21T04:45:08;17.80;99.90
18974;DHT22;9621;48.690;9.466;2022-07-21T04:47:43;17.90;99.90
18974;DHT22;9621;48.690;9.466;2022-07-21T04:50:11;17.90;99.90
18974;DHT22;9621;48.690;9.466;2022-07-21T04:52:38;18.00;99.90
18974;DHT22;9621;48.690;9.466;2022-07-21T04:55:07;18.10;99.90
18974;DHT22;9621;48.690;9.466;2022-07-21T04:57:37;18.10;99.90
18974;DHT22;9621;48.690;9.466;2022-07-21T05:00:06;18.10;99.90
18974;DHT22;9621;48.690;9.466;2022-07-21T05:02:35;18.20;99.90
18974;DHT22;9621;48.690;9.466;2022-07-21T05:05:04;18.30;99.90
18974;DHT22;9621;48.690;9.466;2022-07-21T05:07:31;18.30;99.90
18974;DHT22;9621;48.690;9.466;2022-07-21T05:09:58;18.50;99.90
18974;DHT22;9621;48.690;9.466;2022-07-21T05:12:25;18.50;99.90
18974;DHT22;9621;48.690;9.466;2022-07-21T05:14:52;18.60;99.90
18974;DHT22;9621;48.690;9.466;2022-07-21T05:17:19;18.60;99.90
18974;DHT22;9621;48.690;9.466;2022-07-21T05:19:46;18.60;99.90
18974;DHT22;9621;48.690;9.466;2022-07-21T05:22:17;18.80;99.90
18974;DHT22;9621;48.690;9.466;2022-07-21T05:24:44;18.90;99.90
18974;DHT22;9621;48.690;9.466;2022-07-21T05:27:11;18.90;99.90
18974;DHT22;9621;48.690;9.466;2022-07-21T05:29:38;19.00;99.90
18974;DHT22;9621;48.690;9.466;2022-07-21T05:32:05;19.00;99.90
18974;DHT22;9621;48.690;9.466;2022-07-21T05:34:32;19.00;99.90
18974;DHT22;9621;48.690;9.466;2022-07-21T05:36:59;19.00;99.90
18974;DHT22;9621;48.690;9.466;2022-07-21T05:39:29;19.10;99.90
18974;DHT22;9621;48.690;9.466;2022-07-21T05:41:56;19.20;99.90
18974;DHT22;9621;48.690;9.466;2022-07-21T05:44:23;19.40;99.90
18974;DHT22;9621;48.690;9.466;2022-07-21T05:46:50;19.60;99.90
18974;DHT22;9621;48.690;9.466;2022-07-21T05:49:17;19.90;99.90
18974;DHT22;9621;48.690;9.466;2022-07-21T05:51:44;20.20;99.90
18974;DHT22;9621;48.690;9.466;2022-07-21T05:54:11;20.60;99.90
18974;DHT22;9621;48.690;9.466;2022-07-21T05:56:39;21.10;99.90
18974;DHT22;9621;48.690;9.466;2022-07-21T05:59:06;21.50;99.90
18974;DHT22;9621;48.690;9.466;2022-07-21T06:01:33;21.90;99.90
18974;DHT22;9621;48.690;9.466;2022-07-21T06:04:00;22.30;99.90
18974;DHT22;9621;48.690;9.466;2022-07-21T06:06:27;22.70;99.90
18974;DHT22;9621;48.690;9.466;2022-07-21T06:08:54;23.00;99.90
18974;DHT22;9621;48.690;9.466;2022-07-21T06:11:21;23.30;99.90
18974;DHT22;9621;48.690;9.466;2022-07-21T06:13:49;23.50;99.90
18974;DHT22;9621;48.690;9.466;2022-07-21T06:16:16;23.80;99.90
18974;DHT22;9621;48.690;9.466;2022-07-21T06:18:43;24.00;99.90
18974;DHT22;9621;48.690;9.466;2022-07-21T06:21:10;24.20;99.90
18974;DHT22;9621;48.690;9.466;2022-07-21T06:23:37;24.40;99.90
18974;DHT22;9621;48.690;9.466;2022-07-21T06:26:04;24.60;99.90
18974;DHT22;9621;48.690;9.466;2022-07-21T06:28:31;24.80;99.90
18974;DHT22;9621;48.690;9.466;2022-07-21T06:30:59;25.00;99.90
18974;DHT22;9621;48.690;9.466;2022-07-21T06:33:26;25.10;99.90
18974;DHT22;9621;48.690;9.466;2022-07-21T06:35:54;25.40;99.90
18974;DHT22;9621;48.690;9.466;2022-07-21T06:38:21;25.60;99.90
18974;DHT22;9621;48.690;9.466;2022-07-21T06:40:48;25.80;99.90
18974;DHT22;9621;48.690;9.466;2022-07-21T06:43:15;25.90;99.90
18974;DHT22;9621;48.690;9.466;2022-07-21T06:45:42;26.00;99.90
18974;DHT22;9621;48.690;9.466;2022-07-21T06:48:11;26.00;99.90
18974;DHT22;9621;48.690;9.466;2022-07-21T06:50:39;25.90;99.90
18974;DHT22;9621;48.690;9.466;2022-07-21T06:53:06;25.90;99.90
18974;DHT22;9621;48.690;9.466;2022-07-21T06:55:36;26.00;99.90
18974;DHT22;9621;48.690;9.466;2022-07-21T06:58:10;26.20;99.90
18974;DHT22;9621;48.690;9.466;2022-07-21T07:00:37;26.30;98.70
18974;DHT22;9621;48.690;9.466;2022-07-21T07:03:06;26.30;99.90
18974;DHT22;9621;48.690;9.466;2022-07-21T07:05:35;26.20;99.90
18974;DHT22;9621;48.690;9.466;2022-07-21T07:08:03;26.20;99.90
18974;DHT22;9621;48.690;9.466;2022-07-21T07:10:30;26.40;99.90
18974;DHT22;9621;48.690;9.466;2022-07-21T07:12:57;26.70;99.90
18974;DHT22;9621;48.690;9.466;2022-07-21T07:15:25;27.00;99.30
18974;DHT22;9621;48.690;9.466;2022-07-21T07:17:52;27.30;98.60
18974;DHT22;9621;48.690;9.466;2022-07-21T07:20:20;27.50;98.60
18974;DHT22;9621;48.690;9.466;2022-07-21T07:22:48;27.80;98.40
18974;DHT22;9621;48.690;9.466;2022-07-21T07:25:16;28.10;96.80
18974;DHT22;9621;48.690;9.466;2022-07-21T07:27:43;28.40;97.00
18974;DHT22;9621;48.690;9.466;2022-07-21T07:30:13;28.60;96.00
18974;DHT22;9621;48.690;9.466;2022-07-21T07:32:40;28.50;95.50
18974;DHT22;9621;48.690;9.466;2022-07-21T07:35:08;28.30;95.30
18974;DHT22;9621;48.690;9.466;2022-07-21T07:37:36;28.10;95.20
18974;DHT22;9621;48.690;9.466;2022-07-21T07:40:06;27.90;95.10
18974;DHT22;9621;48.690;9.466;2022-07-21T07:42:33;27.60;93.70
18974;DHT22;9621;48.690;9.466;2022-07-21T07:45:00;27.30;95.20
18974;DHT22;9621;48.690;9.466;2022-07-21T07:47:27;27.10;96.00
18974;DHT22;9621;48.690;9.466;2022-07-21T07:49:54;26.80;96.20
18974;DHT22;9621;48.690;9.466;2022-07-21T07:52:22;26.70;96.70
18974;DHT22;9621;48.690;9.466;2022-07-21T07:54:49;26.80;96.50
18974;DHT22;9621;48.690;9.466;2022-07-21T07:57:17;27.00;95.90
18974;DHT22;9621;48.690;9.466;2022-07-21T07:59:44;27.10;95.20
18974;DHT22;9621;48.690;9.466;2022-07-21T08:02:11;27.40;95.20
18974;DHT22;9621;48.690;9.466;2022-07-21T08:04:38;27.60;94.50
18974;DHT22;9621;48.690;9.466;2022-07-21T08:07:07;27.50;94.30
18974;DHT22;9621;48.690;9.466;2022-07-21T08:09:33;27.60;94.40
18974;DHT22;9621;48.690;9.466;2022-07-21T08:12:01;27.80;94.90
18974;DHT22;9621;48.690;9.466;2022-07-21T08:14:29;28.10;94.80
18974;DHT22;9621;48.690;9.466;2022-07-21T08:16:56;28.50;93.50
18974;DHT22;9621;48.690;9.466;2022-07-21T08:19:24;28.80;93.60
18974;DHT22;9621;48.690;9.466;2022-07-21T08:21:51;29.10;92.80
18974;DHT22;9621;48.690;9.466;2022-07-21T08:24:19;29.40;92.60
18974;DHT22;9621;48.690;9.466;2022-07-21T08:26:46;29.60;91.70
18974;DHT22;9621;48.690;9.466;2022-07-21T08:29:13;29.80;91.20
18974;DHT22;9621;48.690;9.466;2022-07-21T08:31:41;30.00;91.30
18974;DHT22;9621;48.690;9.466;2022-07-21T08:34:08;30.20;90.10
18974;DHT22;9621;48.690;9.466;2022-07-21T08:36:35;30.30;90.90
18974;DHT22;9621;48.690;9.466;2022-07-21T08:39:02;30.50;88.40
18974;DHT22;9621;48.690;9.466;2022-07-21T08:41:30;30.60;88.40
18974;DHT22;9621;48.690;9.466;2022-07-21T08:43:58;30.80;89.40
18974;DHT22;9621;48.690;9.466;2022-07-21T08:46:25;30.90;88.70
18974;DHT22;9621;48.690;9.466;2022-07-21T08:48:54;30.80;86.10
18974;DHT22;9621;48.690;9.466;2022-07-21T08:51:21;30.60;82.00
18974;DHT22;9621;48.690;9.466;2022-07-21T08:53:47;30.30;83.00
18974;DHT22;9621;48.690;9.466;2022-07-21T08:56:15;29.90;83.30
18974;DHT22;9621;48.690;9.466;2022-07-21T08:58:41;29.50;84.30
18974;DHT22;9621;48.690;9.466;2022-07-21T09:01:08;29.10;84.40
18974;DHT22;9621;48.690;9.466;2022-07-21T09:03:35;28.70;86.00
18974;DHT22;9621;48.690;9.466;2022-07-21T09:06:06;28.40;88.00
18974;DHT22;9621;48.690;9.466;2022-07-21T09:08:35;28.20;86.20
18974;DHT22;9621;48.690;9.466;2022-07-21T09:11:12;28.10;89.40
18974;DHT22;9621;48.690;9.466;2022-07-21T09:13:41;28.30;86.60
18974;DHT22;9621;48.690;9.466;2022-07-21T09:16:08;28.50;90.70
18974;DHT22;9621;48.690;9.466;2022-07-21T09:18:47;28.80;91.00
18974;DHT22;9621;48.690;9.466;2022-07-21T09:21:17;29.10;84.90
18974;DHT22;9621;48.690;9.466;2022-07-21T09:23:46;29.40;89.60
18974;DHT22;9621;48.690;9.466;2022-07-21T09:26:13;29.70;87.00
18974;DHT22;9621;48.690;9.466;2022-07-21T09:28:41;29.90;86.90
18974;DHT22;9621;48.690;9.466;2022-07-21T09:31:10;30.10;85.10
18974;DHT22;9621;48.690;9.466;2022-07-21T09:33:42;30.20;85.20
18974;DHT22;9621;48.690;9.466;2022-07-21T09:36:10;30.20;78.50
18974;DHT22;9621;48.690;9.466;2022-07-21T09:38:41;30.10;82.40
18974;DHT22;9621;48.690;9.466;2022-07-21T09:41:11;29.90;80.40
18974;DHT22;9621;48.690;9.466;2022-07-21T09:43:41;29.70;82.30
18974;DHT22;9621;48.690;9.466;2022-07-21T09:46:19;29.60;82.80
18974;DHT22;9621;48.690;9.466;2022-07-21T09:48:48;29.50;83.40
18974;DHT22;9621;48.690;9.466;2022-07-21T09:51:27;29.70;85.30
18974;DHT22;9621;48.690;9.466;2022-07-21T09:53:58;29.90;80.60
18974;DHT22;9621;48.690;9.466;2022-07-21T09:56:27;30.00;79.70
18974;DHT22;9621;48.690;9.466;2022-07-21T09:58:56;30.00;83.50
18974;DHT22;9621;48.690;9.466;2022-07-21T10:01:24;30.00;81.60
18974;DHT22;9621;48.690;9.466;2022-07-21T10:03:53;30.10;83.00
18974;DHT22;9621;48.690;9.466;2022-07-21T10:06:23;31.60;83.40
18974;DHT22;9621;48.690;9.466;2022-07-21T10:08:50;30.30;78.50
18974;DHT22;9621;48.690;9.466;2022-07-21T10:11:19;30.40;81.10
18974;DHT22;9621;48.690;9.466;2022-07-21T10:13:46;30.40;79.90
18974;DHT22;9621;48.690;9.466;2022-07-21T10:16:13;30.50;81.80
18974;DHT22;9621;48.690;9.466;2022-07-21T10:18:55;30.60;80.70
18974;DHT22;9621;48.690;9.466;2022-07-21T10:21:42;30.50;75.90
18974;DHT22;9621;48.690;9.466;2022-07-21T10:24:11;30.60;78.30
18974;DHT22;9621;48.690;9.466;2022-07-21T10:27:03;30.70;81.10
18974;DHT22;9621;48.690;9.466;2022-07-21T10:29:50;30.80;73.40
18974;DHT22;9621;48.690;9.466;2022-07-21T10:32:20;30.90;74.20
18974;DHT22;9621;48.690;9.466;2022-07-21T10:34:47;31.00;79.90
18974;DHT22;9621;48.690;9.466;2022-07-21T10:37:45;31.10;80.90
18974;DHT22;9621;48.690;9.466;2022-07-21T10:40:38;31.20;73.10
18974;DHT22;9621;48.690;9.466;2022-07-21T10:43:41;31.30;72.80
18974;DHT22;9621;48.690;9.466;2022-07-21T10:46:35;31.40;70.80
18974;DHT22;9621;48.690;9.466;2022-07-21T10:49:04;31.50;72.40
18974;DHT22;9621;48.690;9.466;2022-07-21T10:51:33;31.60;76.70
18974;DHT22;9621;48.690;9.466;2022-07-21T10:54:19;31.80;76.30
18974;DHT22;9621;48.690;9.466;2022-07-21T10:56:46;31.70;69.90
18974;DHT22;9621;48.690;9.466;2022-07-21T10:59:14;31.80;78.50
18974;DHT22;9621;48.690;9.466;2022-07-21T11:01:41;31.80;75.70
18974;DHT22;9621;48.690;9.466;2022-07-21T11:04:10;32.00;77.10
18974;DHT22;9621;48.690;9.466;2022-07-21T11:06:38;32.10;76.30
18974;DHT22;9621;48.690;9.466;2022-07-21T11:09:08;32.30;77.50
18974;DHT22;9621;48.690;9.466;2022-07-21T11:11:37;32.50;73.10
18974;DHT22;9621;48.690;9.466;2022-07-21T11:14:06;32.70;72.90
18974;DHT22;9621;48.690;9.466;2022-07-21T11:16:59;32.90;73.10
18974;DHT22;9621;48.690;9.466;2022-07-21T11:19:39;33.00;66.90
18974;DHT22;9621;48.690;9.466;2022-07-21T11:22:10;33.10;68.30
18974;DHT22;9621;48.690;9.466;2022-07-21T11:24:38;33.40;71.20
18974;DHT22;9621;48.690;9.466;2022-07-21T11:27:08;33.40;75.00
18974;DHT22;9621;48.690;9.466;2022-07-21T11:29:37;33.60;73.50
18974;DHT22;9621;48.690;9.466;2022-07-21T11:32:07;33.70;72.10
18974;DHT22;9621;48.690;9.466;2022-07-21T11:34:40;33.80;68.60
18974;DHT22;9621;48.690;9.466;2022-07-21T11:37:09;33.80;65.00
18974;DHT22;9621;48.690;9.466;2022-07-21T11:39:37;33.90;69.30
18974;DHT22;9621;48.690;9.466;2022-07-21T11:42:06;33.90;69.80
18974;DHT22;9621;48.690;9.466;2022-07-21T11:44:34;34.00;70.00
18974;DHT22;9621;48.690;9.466;2022-07-21T11:47:03;34.20;70.60
18974;DHT22;9621;48.690;9.466;2022-07-21T11:49:32;34.10;69.40
18974;DHT22;9621;48.690;9.466;2022-07-21T11:52:01;34.10;68.80
18974;DHT22;9621;48.690;9.466;2022-07-21T11:54:31;34.30;69.30
18974;DHT22;9621;48.690;9.466;2022-07-21T11:57:01;34.30;63.00
18974;DHT22;9621;48.690;9.466;2022-07-21T11:59:29;34.40;65.70
18974;DHT22;9621;48.690;9.466;2022-07-21T12:02:00;34.40;66.30
18974;DHT22;9621;48.690;9.466;2022-07-21T12:04:38;34.30;64.20
18974;DHT22;9621;48.690;9.466;2022-07-21T12:07:11;34.30;59.70
18974;DHT22;9621;48.690;9.466;2022-07-21T12:09:42;34.40;62.00
18974;DHT22;9621;48.690;9.466;2022-07-21T12:12:10;34.40;66.50
18974;DHT22;9621;48.690;9.466;2022-07-21T12:18:18;34.60;60.00
18974;DHT22;9621;48.690;9.466;2022-07-21T12:20:47;34.50;61.20
18974;DHT22;9621;48.690;9.466;2022-07-21T12:23:20;34.50;66.20
18974;DHT22;9621;48.690;9.466;2022-07-21T12:25:47;34.60;60.40
18974;DHT22;9621;48.690;9.466;2022-07-21T12:28:15;34.60;64.50
18974;DHT22;9621;48.690;9.466;2022-07-21T12:30:43;34.60;64.00
18974;DHT22;9621;48.690;9.466;2022-07-21T12:33:11;34.60;64.00
18974;DHT22;9621;48.690;9.466;2022-07-21T12:35:40;34.70;64.30
18974;DHT22;9621;48.690;9.466;2022-07-21T12:38:11;35.00;65.90
18974;DHT22;9621;48.690;9.466;2022-07-21T12:40:40;34.80;59.00
18974;DHT22;9621;48.690;9.466;2022-07-21T12:43:10;35.00;62.70
18974;DHT22;9621;48.690;9.466;2022-07-21T12:45:52;35.00;61.70
18974;DHT22;9621;48.690;9.466;2022-07-21T12:48:21;35.10;55.40
18974;DHT22;9621;48.690;9.466;2022-07-21T12:51:03;35.10;62.40
18974;DHT22;9621;48.690;9.466;2022-07-21T12:53:34;35.10;56.30
18974;DHT22;9621;48.690;9.466;2022-07-21T12:56:01;35.10;59.00
18974;DHT22;9621;48.690;9.466;2022-07-21T12:58:29;35.20;61.80
18974;DHT22;9621;48.690;9.466;2022-07-21T13:00:56;35.20;61.90
18974;DHT22;9621;48.690;9.466;2022-07-21T13:03:23;35.40;61.00
18974;DHT22;9621;48.690;9.466;2022-07-21T13:05:50;35.50;60.50
18974;DHT22;9621;48.690;9.466;2022-07-21T13:08:17;35.70;59.50
18974;DHT22;9621;48.690;9.466;2022-07-21T13:10:46;35.50;58.80
18974;DHT22;9621;48.690;9.466;2022-07-21T13:13:13;35.40;57.10
18974;DHT22;9621;48.690;9.466;2022-07-21T13:15:40;35.20;59.20
18974;DHT22;9621;48.690;9.466;2022-07-21T13:18:07;35.00;56.70
18974;DHT22;9621;48.690;9.466;2022-07-21T13:20:34;34.60;55.20
18974;DHT22;9621;48.690;9.466;2022-07-21T13:23:01;33.90;55.20
18974;DHT22;9621;48.690;9.466;2022-07-21T13:25:28;33.30;54.80
18974;DHT22;9621;48.690;9.466;2022-07-21T13:27:57;32.70;54.80
18974;DHT22;9621;48.690;9.466;2022-07-21T13:30:24;32.20;55.50
18974;DHT22;9621;48.690;9.466;2022-07-21T13:32:52;31.60;57.10
18974;DHT22;9621;48.690;9.466;2022-07-21T13:35:18;31.20;58.90
18974;DHT22;9621;48.690;9.466;2022-07-21T13:37:45;31.00;59.20
18974;DHT22;9621;48.690;9.466;2022-07-21T13:40:12;31.00;60.50
18974;DHT22;9621;48.690;9.466;2022-07-21T13:42:39;31.00;61.30
18974;DHT22;9621;48.690;9.466;2022-07-21T13:45:09;31.20;62.60
18974;DHT22;9621;48.690;9.466;2022-07-21T13:47:37;31.30;60.50
18974;DHT22;9621;48.690;9.466;2022-07-21T13:50:04;31.50;61.90
18974;DHT22;9621;48.690;9.466;2022-07-21T13:52:32;31.50;58.60
18974;DHT22;9621;48.690;9.466;2022-07-21T13:54:59;31.40;56.90
18974;DHT22;9621;48.690;9.466;2022-07-21T13:57:26;31.30;59.00
18974;DHT22;9621;48.690;9.466;2022-07-21T13:59:53;31.00;58.20
18974;DHT22;9621;48.690;9.466;2022-07-21T14:02:21;30.90;58.90
18974;DHT22;9621;48.690;9.466;2022-07-21T14:04:48;30.80;59.40
18974;DHT22;9621;48.690;9.466;2022-07-21T14:07:15;30.70;60.70
18974;DHT22;9621;48.690;9.466;2022-07-21T14:09:42;30.70;59.70
18974;DHT22;9621;48.690;9.466;2022-07-21T14:12:10;30.70;59.90
18974;DHT22;9621;48.690;9.466;2022-07-21T14:14:37;30.70;59.80
18974;DHT22;9621;48.690;9.466;2022-07-21T14:17:05;30.60;59.90
18974;DHT22;9621;48.690;9.466;2022-07-21T14:19:33;30.50;59.80
18974;DHT22;9621;48.690;9.466;2022-07-21T14:22:00;30.70;59.70
18974;DHT22;9621;48.690;9.466;2022-07-21T14:24:27;30.40;58.70
18974;DHT22;9621;48.690;9.466;2022-07-21T14:27:12;30.40;59.80
18974;DHT22;9621;48.690;9.466;2022-07-21T14:29:39;30.40;60.10
18974;DHT22;9621;48.690;9.466;2022-07-21T14:32:06;30.40;60.00
18974;DHT22;9621;48.690;9.466;2022-07-21T14:34:35;30.50;59.80
18974;DHT22;9621;48.690;9.466;2022-07-21T14:37:02;30.60;58.60
18974;DHT22;9621;48.690;9.466;2022-07-21T14:39:29;30.70;60.50
18974;DHT22;9621;48.690;9.466;2022-07-21T14:41:56;30.90;60.10
18974;DHT22;9621;48.690;9.466;2022-07-21T14:44:23;30.80;60.40
18974;DHT22;9621;48.690;9.466;2022-07-21T14:46:50;31.00;59.50
18974;DHT22;9621;48.690;9.466;2022-07-21T14:49:18;31.10;60.50
18974;DHT22;9621;48.690;9.466;2022-07-21T14:51:46;31.20;60.40
18974;DHT22;9621;48.690;9.466;2022-07-21T14:54:13;31.30;58.00
18974;DHT22;9621;48.690;9.466;2022-07-21T14:56:40;31.30;58.10
18974;DHT22;9621;48.690;9.466;2022-07-21T14:59:07;31.40;58.50
18974;DHT22;9621;48.690;9.466;2022-07-21T15:01:34;31.30;61.70
18974;DHT22;9621;48.690;9.466;2022-07-21T15:04:01;31.10;60.00
18974;DHT22;9621;48.690;9.466;2022-07-21T15:06:28;31.10;59.20
18974;DHT22;9621;48.690;9.466;2022-07-21T15:08:56;30.90;57.80
18974;DHT22;9621;48.690;9.466;2022-07-21T15:11:24;30.90;57.70
18974;DHT22;9621;48.690;9.466;2022-07-21T15:13:51;30.70;57.90
18974;DHT22;9621;48.690;9.466;2022-07-21T15:16:18;30.60;59.10
18974;DHT22;9621;48.690;9.466;2022-07-21T15:18:45;30.70;59.30
18974;DHT22;9621;48.690;9.466;2022-07-21T15:21:12;30.70;59.10
18974;DHT22;9621;48.690;9.466;2022-07-21T15:23:39;30.70;58.80
18974;DHT22;9621;48.690;9.466;2022-07-21T15:26:08;30.60;58.00
18974;DHT22;9621;48.690;9.466;2022-07-21T15:28:37;30.40;57.10
18974;DHT22;9621;48.690;9.466;2022-07-21T15:31:04;30.30;56.80
18974;DHT22;9621;48.690;9.466;2022-07-21T15:33:33;30.10;57.30
18974;DHT22;9621;48.690;9.466;2022-07-21T15:36:00;29.90;56.80
18974;DHT22;9621;48.690;9.466;2022-07-21T15:38:27;29.60;56.30
18974;DHT22;9621;48.690;9.466;2022-07-21T15:40:55;29.40;56.80
18974;DHT22;9621;48.690;9.466;2022-07-21T15:43:23;29.00;57.70
18974;DHT22;9621;48.690;9.466;2022-07-21T15:45:50;28.80;57.10
18974;DHT22;9621;48.690;9.466;2022-07-21T15:48:17;28.50;58.20
18974;DHT22;9621;48.690;9.466;2022-07-21T15:50:44;28.30;59.00
18974;DHT22;9621;48.690;9.466;2022-07-21T15:53:11;28.20;59.20
18974;DHT22;9621;48.690;9.466;2022-07-21T15:55:39;28.00;58.20
18974;DHT22;9621;48.690;9.466;2022-07-21T15:58:06;27.80;59.50